sensor_id;sensor_type;location;lat;lon;timestamp;pressure;altitude;pressure_sealevel;temperature;humidity
21520;BME280;10921;53.614;9.882;2022-08-04T00:00:09;101244.34;;;22.61;87.00
21520;BME280;10921;53.614;9.882;2022-08-04T00:02:58;101251.69;;;22.54;87.57
21520;BME280;10921;53.614;9.882;2022-08-04T00:10:32;101241.22;;;22.38;87.06
21520;BME280;10921;53.614;9.882;2022-08-04T00:13:03;101238.28;;;22.33;87.33
21520;BME280;10921;53.614;9.882;2022-08-04T00:15:32;101236.22;;;22.28;87.28
21520;BME280;10921;53.614;9.882;2022-08-04T00:18:07;101240.81;;;22.28;88.61
21520;BME280;10921;53.614;9.882;2022-08-04T00:20:38;101239.56;;;22.24;88.71
21520;BME280;10921;53.614;9.882;2022-08-04T00:23:07;101237.47;;;22.19;89.04
21520;BME280;10921;53.614;9.882;2022-08-04T00:25:37;101240.81;;;22.15;88.92
21520;BME280;10921;53.614;9.882;2022-08-04T00:28:05;101242.06;;;22.12;89.00
21520;BME280;10921;53.614;9.882;2022-08-04T00:30:32;101239.13;;;22.07;88.83
21520;BME280;10921;53.614;9.882;2022-08-04T00:32:59;101243.94;;;22.05;89.22
21520;BME280;10921;53.614;9.882;2022-08-04T00:35:27;101232.41;;;22.03;89.27
21520;BME280;10921;53.614;9.882;2022-08-04T00:37:54;101232.81;;;22.00;89.52
21520;BME280;10921;53.614;9.882;2022-08-04T00:40:32;101239.31;;;21.99;90.11
21520;BME280;10921;53.614;9.882;2022-08-04T00:43:09;101229.03;;;21.94;89.41
21520;BME280;10921;53.614;9.882;2022-08-04T00:45:44;101225.91;;;21.91;89.60
21520;BME280;10921;53.614;9.882;2022-08-04T00:54:04;101230.06;;;21.87;90.35
21520;BME280;10921;53.614;9.882;2022-08-04T00:59:55;101224.84;;;21.79;90.74
21520;BME280;10921;53.614;9.882;2022-08-04T01:02:35;101220.00;;;21.74;90.61
21520;BME280;10921;53.614;9.882;2022-08-04T01:05:19;101216.03;;;21.70;90.13
21520;BME280;10921;53.614;9.882;2022-08-04T01:08:01;101219.81;;;21.69;90.85
21520;BME280;10921;53.614;9.882;2022-08-04T01:10:37;101212.06;;;21.66;91.10
21520;BME280;10921;53.614;9.882;2022-08-04T01:15:48;101209.97;;;21.61;91.38
21520;BME280;10921;53.614;9.882;2022-08-04T01:21:29;101206.41;;;21.61;92.49
21520;BME280;10921;53.614;9.882;2022-08-04T01:29:26;101199.06;;;21.55;92.43
21520;BME280;10921;53.614;9.882;2022-08-04T01:40:05;101203.88;;;21.53;93.24
21520;BME280;10921;53.614;9.882;2022-08-04T01:42:35;101194.28;;;21.50;92.73
21520;BME280;10921;53.614;9.882;2022-08-04T01:45:07;101186.34;;;21.49;93.04
21520;BME280;10921;53.614;9.882;2022-08-04T01:47:36;101193.84;;;21.47;92.81
21520;BME280;10921;53.614;9.882;2022-08-04T01:50:12;101182.97;;;21.47;93.31
21520;BME280;10921;53.614;9.882;2022-08-04T01:52:40;101177.94;;;21.44;92.56
21520;BME280;10921;53.614;9.882;2022-08-04T01:55:11;101179.19;;;21.41;92.71
21520;BME280;10921;53.614;9.882;2022-08-04T01:57:43;101177.50;;;21.40;93.86
21520;BME280;10921;53.614;9.882;2022-08-04T02:00:12;101179.63;;;21.38;92.80
21520;BME280;10921;53.614;9.882;2022-08-04T02:02:39;101179.38;;;21.33;92.32
21520;BME280;10921;53.614;9.882;2022-08-04T02:05:11;101180.03;;;21.35;93.85
21520;BME280;10921;53.614;9.882;2022-08-04T02:13:29;101166.63;;;21.27;93.85
21520;BME280;10921;53.614;9.882;2022-08-04T02:16:07;101177.88;;;21.24;94.13
21520;BME280;10921;53.614;9.882;2022-08-04T02:21:18;101166.78;;;21.19;93.59
21520;BME280;10921;53.614;9.882;2022-08-04T02:23:50;101166.63;;;21.20;94.75
21520;BME280;10921;53.614;9.882;2022-08-04T02:26:20;101169.69;;;21.17;93.60
21520;BME280;10921;53.614;9.882;2022-08-04T02:36:40;101164.88;;;21.13;94.26
21520;BME280;10921;53.614;9.882;2022-08-04T02:39:09;101168.81;;;21.10;93.79
21520;BME280;10921;53.614;9.882;2022-08-04T02:41:38;101166.09;;;21.10;94.38
21520;BME280;10921;53.614;9.882;2022-08-04T02:44:09;101169.00;;;21.08;95.00
21520;BME280;10921;53.614;9.882;2022-08-04T02:46:37;101159.44;;;21.06;94.26
21520;BME280;10921;53.614;9.882;2022-08-04T02:49:05;101165.91;;;21.05;94.59
21520;BME280;10921;53.614;9.882;2022-08-04T02:51:35;101159.63;;;21.04;94.46
21520;BME280;10921;53.614;9.882;2022-08-04T02:54:04;101165.25;;;21.03;94.33
21520;BME280;10921;53.614;9.882;2022-08-04T02:56:35;101154.41;;;21.03;94.97
21520;BME280;10921;53.614;9.882;2022-08-04T02:59:05;101159.41;;;20.99;94.11
21520;BME280;10921;53.614;9.882;2022-08-04T03:01:34;101152.50;;;20.97;93.82
21520;BME280;10921;53.614;9.882;2022-08-04T03:13:07;101158.34;;;21.00;92.66
21520;BME280;10921;53.614;9.882;2022-08-04T03:19:01;101146.22;;;20.90;95.65
21520;BME280;10921;53.614;9.882;2022-08-04T03:22:05;101148.28;;;20.88;95.44
21520;BME280;10921;53.614;9.882;2022-08-04T03:48:07;101144.06;;;20.79;95.41
21520;BME280;10921;53.614;9.882;2022-08-04T04:01:37;101150.31;;;20.79;97.02
21520;BME280;10921;53.614;9.882;2022-08-04T04:07:30;101146.75;;;20.79;96.75
21520;BME280;10921;53.614;9.882;2022-08-04T04:10:28;101140.09;;;20.81;97.61
21520;BME280;10921;53.614;9.882;2022-08-04T04:24:28;101150.34;;;20.86;98.28
21520;BME280;10921;53.614;9.882;2022-08-04T04:27:21;101148.28;;;20.88;98.16
21520;BME280;10921;53.614;9.882;2022-08-04T04:30:07;101145.19;;;20.91;98.06
21520;BME280;10921;53.614;9.882;2022-08-04T04:35:41;101139.75;;;20.97;98.50
21520;BME280;10921;53.614;9.882;2022-08-04T04:41:04;101133.53;;;21.03;98.79
21520;BME280;10921;53.614;9.882;2022-08-04T04:43:49;101131.25;;;21.07;98.90
21520;BME280;10921;53.614;9.882;2022-08-04T04:51:54;101123.56;;;21.17;98.82
21520;BME280;10921;53.614;9.882;2022-08-04T04:54:40;101119.00;;;21.24;99.39
21520;BME280;10921;53.614;9.882;2022-08-04T04:57:14;101117.56;;;21.28;99.12
21520;BME280;10921;53.614;9.882;2022-08-04T04:59:49;101122.19;;;21.34;98.95
21520;BME280;10921;53.614;9.882;2022-08-04T05:02:25;101121.97;;;21.42;99.20
21520;BME280;10921;53.614;9.882;2022-08-04T05:08:04;101109.06;;;21.58;99.47
21520;BME280;10921;53.614;9.882;2022-08-04T05:13:37;101119.53;;;21.74;97.66
21520;BME280;10921;53.614;9.882;2022-08-04T05:17:32;101116.59;;;21.89;97.98
21520;BME280;10921;53.614;9.882;2022-08-04T05:25:03;101126.03;;;22.13;95.61
21520;BME280;10921;53.614;9.882;2022-08-04T05:27:38;101122.03;;;22.22;95.30
21520;BME280;10921;53.614;9.882;2022-08-04T05:30:07;101124.13;;;22.33;94.21
21520;BME280;10921;53.614;9.882;2022-08-04T05:32:45;101116.16;;;22.44;94.09
21520;BME280;10921;53.614;9.882;2022-08-04T05:35:26;101113.19;;;22.59;92.79
21520;BME280;10921;53.614;9.882;2022-08-04T05:38:14;101116.50;;;22.81;91.67
21520;BME280;10921;53.614;9.882;2022-08-04T05:40:42;101108.72;;;22.85;90.67
21520;BME280;10921;53.614;9.882;2022-08-04T05:43:10;101118.09;;;23.02;89.98
21520;BME280;10921;53.614;9.882;2022-08-04T05:45:40;101115.91;;;23.17;89.31
21520;BME280;10921;53.614;9.882;2022-08-04T05:48:07;101112.69;;;23.33;86.94
21520;BME280;10921;53.614;9.882;2022-08-04T05:50:35;101113.66;;;23.52;86.28
21520;BME280;10921;53.614;9.882;2022-08-04T05:53:02;101106.34;;;23.71;83.98
21520;BME280;10921;53.614;9.882;2022-08-04T05:55:30;101108.72;;;23.92;83.15
21520;BME280;10921;53.614;9.882;2022-08-04T05:58:18;101105.34;;;24.15;81.06
21520;BME280;10921;53.614;9.882;2022-08-04T06:00:46;101106.63;;;24.37;78.92
21520;BME280;10921;53.614;9.882;2022-08-04T06:03:18;101107.25;;;24.58;78.05
21520;BME280;10921;53.614;9.882;2022-08-04T06:05:46;101116.50;;;24.75;77.09
21520;BME280;10921;53.614;9.882;2022-08-04T06:08:14;101105.78;;;24.92;75.73
21520;BME280;10921;53.614;9.882;2022-08-04T06:10:43;101105.19;;;25.08;74.17
21520;BME280;10921;53.614;9.882;2022-08-04T06:13:11;101102.66;;;25.36;75.03
21520;BME280;10921;53.614;9.882;2022-08-04T06:16:00;101094.16;;;25.44;72.51
21520;BME280;10921;53.614;9.882;2022-08-04T06:18:28;101101.31;;;25.57;71.33
21520;BME280;10921;53.614;9.882;2022-08-04T06:21:18;101098.16;;;25.72;71.22
21520;BME280;10921;53.614;9.882;2022-08-04T06:23:47;101098.41;;;25.82;69.95
21520;BME280;10921;53.614;9.882;2022-08-04T06:26:29;101098.53;;;25.87;69.56
21520;BME280;10921;53.614;9.882;2022-08-04T06:28:59;101085.59;;;25.94;69.47
21520;BME280;10921;53.614;9.882;2022-08-04T06:31:26;101085.00;;;26.04;70.07
21520;BME280;10921;53.614;9.882;2022-08-04T06:34:31;101096.53;;;26.17;68.17
21520;BME280;10921;53.614;9.882;2022-08-04T06:37:00;101094.66;;;26.30;67.43
21520;BME280;10921;53.614;9.882;2022-08-04T06:39:28;101085.25;;;26.37;66.20
21520;BME280;10921;53.614;9.882;2022-08-04T06:41:55;101093.81;;;26.52;65.70
21520;BME280;10921;53.614;9.882;2022-08-04T06:44:43;101087.22;;;26.65;65.98
21520;BME280;10921;53.614;9.882;2022-08-04T06:47:12;101090.41;;;26.74;66.75
21520;BME280;10921;53.614;9.882;2022-08-04T06:49:45;101090.28;;;26.80;65.65
21520;BME280;10921;53.614;9.882;2022-08-04T06:52:32;101086.22;;;26.94;64.35
21520;BME280;10921;53.614;9.882;2022-08-04T06:54:59;101089.13;;;27.05;62.78
21520;BME280;10921;53.614;9.882;2022-08-04T06:57:26;101084.13;;;27.13;64.19
21520;BME280;10921;53.614;9.882;2022-08-04T06:59:57;101082.41;;;27.24;62.96
21520;BME280;10921;53.614;9.882;2022-08-04T07:02:26;101077.38;;;27.33;61.45
21520;BME280;10921;53.614;9.882;2022-08-04T07:04:55;101083.00;;;27.43;62.06
21520;BME280;10921;53.614;9.882;2022-08-04T07:07:25;101086.50;;;27.55;61.78
21520;BME280;10921;53.614;9.882;2022-08-04T07:10:03;101083.72;;;27.66;61.81
21520;BME280;10921;53.614;9.882;2022-08-04T07:12:31;101085.31;;;27.79;61.73
21520;BME280;10921;53.614;9.882;2022-08-04T07:14:58;101080.91;;;27.95;62.09
21520;BME280;10921;53.614;9.882;2022-08-04T07:17:27;101077.28;;;28.11;61.25
21520;BME280;10921;53.614;9.882;2022-08-04T07:20:00;101080.88;;;28.28;58.36
21520;BME280;10921;53.614;9.882;2022-08-04T07:22:27;101079.25;;;28.49;58.18
21520;BME280;10921;53.614;9.882;2022-08-04T07:24:58;101074.84;;;28.70;58.85
21520;BME280;10921;53.614;9.882;2022-08-04T07:27:26;101070.69;;;28.89;57.55
21520;BME280;10921;53.614;9.882;2022-08-04T07:30:13;101070.41;;;29.13;56.56
21520;BME280;10921;53.614;9.882;2022-08-04T07:32:41;101074.97;;;29.29;54.88
21520;BME280;10921;53.614;9.882;2022-08-04T07:35:09;101067.16;;;29.43;54.47
21520;BME280;10921;53.614;9.882;2022-08-04T07:37:57;101070.38;;;29.66;54.26
21520;BME280;10921;53.614;9.882;2022-08-04T07:40:24;101065.81;;;29.77;51.79
21520;BME280;10921;53.614;9.882;2022-08-04T07:42:51;101065.09;;;29.92;53.43
21520;BME280;10921;53.614;9.882;2022-08-04T07:45:19;101069.06;;;30.06;51.82
21520;BME280;10921;53.614;9.882;2022-08-04T07:47:48;101067.78;;;30.19;51.70
21520;BME280;10921;53.614;9.882;2022-08-04T07:50:32;101068.66;;;30.29;49.74
21520;BME280;10921;53.614;9.882;2022-08-04T07:52:59;101061.28;;;30.40;49.29
21520;BME280;10921;53.614;9.882;2022-08-04T07:55:47;101063.31;;;30.55;48.83
21520;BME280;10921;53.614;9.882;2022-08-04T07:58:14;101064.19;;;30.65;47.54
21520;BME280;10921;53.614;9.882;2022-08-04T08:00:43;101055.41;;;30.78;48.55
21520;BME280;10921;53.614;9.882;2022-08-04T08:03:12;101064.53;;;30.89;46.99
21520;BME280;10921;53.614;9.882;2022-08-04T08:05:39;101064.84;;;31.03;46.20
21520;BME280;10921;53.614;9.882;2022-08-04T08:08:25;101066.56;;;31.19;46.46
21520;BME280;10921;53.614;9.882;2022-08-04T08:10:52;101067.13;;;31.36;46.61
21520;BME280;10921;53.614;9.882;2022-08-04T08:13:19;101061.34;;;31.48;45.71
21520;BME280;10921;53.614;9.882;2022-08-04T08:15:46;101063.03;;;31.59;45.89
21520;BME280;10921;53.614;9.882;2022-08-04T08:18:13;101057.53;;;31.69;45.66
21520;BME280;10921;53.614;9.882;2022-08-04T08:20:43;101049.22;;;31.85;45.40
21520;BME280;10921;53.614;9.882;2022-08-04T08:23:10;101055.28;;;31.97;45.97
21520;BME280;10921;53.614;9.882;2022-08-04T08:25:37;101062.69;;;32.11;46.99
21520;BME280;10921;53.614;9.882;2022-08-04T08:28:04;101051.63;;;32.27;44.79
21520;BME280;10921;53.614;9.882;2022-08-04T08:30:32;101034.22;;;32.36;43.33
21520;BME280;10921;53.614;9.882;2022-08-04T08:33:01;101045.72;;;32.59;43.32
21520;BME280;10921;53.614;9.882;2022-08-04T08:35:44;101047.88;;;32.82;44.18
21520;BME280;10921;53.614;9.882;2022-08-04T08:38:26;101054.34;;;33.06;42.63
21520;BME280;10921;53.614;9.882;2022-08-04T08:52:49;101023.97;;;33.74;42.06
21520;BME280;10921;53.614;9.882;2022-08-04T08:55:47;101027.13;;;33.92;42.27
21520;BME280;10921;53.614;9.882;2022-08-04T09:05:30;101021.75;;;34.29;39.96
21520;BME280;10921;53.614;9.882;2022-08-04T09:10:19;101016.00;;;34.44;38.51
21520;BME280;10921;53.614;9.882;2022-08-04T09:12:59;101014.75;;;34.55;38.31
21520;BME280;10921;53.614;9.882;2022-08-04T09:15:53;101011.72;;;34.76;38.26
21520;BME280;10921;53.614;9.882;2022-08-04T09:24:42;101002.72;;;35.40;37.11
21520;BME280;10921;53.614;9.882;2022-08-04T09:27:17;101005.94;;;35.61;35.69
21520;BME280;10921;53.614;9.882;2022-08-04T09:30:04;100998.19;;;35.90;35.16
21520;BME280;10921;53.614;9.882;2022-08-04T09:47:25;101003.25;;;37.74;31.16
21520;BME280;10921;53.614;9.882;2022-08-04T09:50:37;100992.78;;;38.10;31.92
21520;BME280;10921;53.614;9.882;2022-08-04T09:53:32;100989.91;;;38.32;31.51
21520;BME280;10921;53.614;9.882;2022-08-04T09:56:08;100993.38;;;38.47;31.24
21520;BME280;10921;53.614;9.882;2022-08-04T09:58:53;100985.06;;;38.73;30.94
21520;BME280;10921;53.614;9.882;2022-08-04T10:01:25;100980.16;;;38.95;30.12
21520;BME280;10921;53.614;9.882;2022-08-04T10:04:06;100985.25;;;39.19;29.82
21520;BME280;10921;53.614;9.882;2022-08-04T10:09:49;100990.13;;;39.57;30.08
21520;BME280;10921;53.614;9.882;2022-08-04T10:17:56;100981.56;;;39.62;29.72
21520;BME280;10921;53.614;9.882;2022-08-04T10:24:06;100973.75;;;39.85;30.02
21520;BME280;10921;53.614;9.882;2022-08-04T10:26:47;100970.31;;;39.79;29.06
21520;BME280;10921;53.614;9.882;2022-08-04T10:29:29;100966.72;;;39.87;28.75
21520;BME280;10921;53.614;9.882;2022-08-04T10:32:20;100952.22;;;39.94;29.63
21520;BME280;10921;53.614;9.882;2022-08-04T10:35:07;100958.34;;;39.87;27.97
21520;BME280;10921;53.614;9.882;2022-08-04T10:37:41;100962.09;;;39.83;28.43
21520;BME280;10921;53.614;9.882;2022-08-04T10:40:33;100951.44;;;39.76;28.85
21520;BME280;10921;53.614;9.882;2022-08-04T10:43:11;100945.19;;;39.79;29.25
21520;BME280;10921;53.614;9.882;2022-08-04T10:45:55;100940.38;;;39.97;28.18
21520;BME280;10921;53.614;9.882;2022-08-04T10:51:20;100928.41;;;40.17;26.79
21520;BME280;10921;53.614;9.882;2022-08-04T10:53:54;100935.75;;;40.30;28.85
21520;BME280;10921;53.614;9.882;2022-08-04T10:56:28;100927.44;;;40.42;28.30
21520;BME280;10921;53.614;9.882;2022-08-04T10:59:29;100920.94;;;40.71;28.18
21520;BME280;10921;53.614;9.882;2022-08-04T11:02:08;100926.28;;;40.85;26.60
21520;BME280;10921;53.614;9.882;2022-08-04T11:04:47;100910.34;;;40.98;25.95
21520;BME280;10921;53.614;9.882;2022-08-04T11:07:17;100920.06;;;41.13;26.18
21520;BME280;10921;53.614;9.882;2022-08-04T11:09:45;100898.19;;;41.15;24.05
21520;BME280;10921;53.614;9.882;2022-08-04T11:12:18;100900.44;;;41.21;23.63
21520;BME280;10921;53.614;9.882;2022-08-04T11:15:11;100903.72;;;41.48;24.47
21520;BME280;10921;53.614;9.882;2022-08-04T11:17:46;100897.38;;;41.26;24.21
21520;BME280;10921;53.614;9.882;2022-08-04T11:23:14;100897.38;;;41.14;23.56
21520;BME280;10921;53.614;9.882;2022-08-04T11:26:20;100893.19;;;41.32;24.24
21520;BME280;10921;53.614;9.882;2022-08-04T11:31:39;100893.69;;;41.01;25.34
21520;BME280;10921;53.614;9.882;2022-08-04T11:36:41;100893.88;;;40.63;23.59
21520;BME280;10921;53.614;9.882;2022-08-04T11:39:17;100895.03;;;40.41;23.37
21520;BME280;10921;53.614;9.882;2022-08-04T11:42:04;100888.34;;;40.34;22.98
21520;BME280;10921;53.614;9.882;2022-08-04T11:44:34;100889.41;;;40.21;23.06
21520;BME280;10921;53.614;9.882;2022-08-04T11:47:08;100886.34;;;40.14;23.31
21520;BME280;10921;53.614;9.882;2022-08-04T11:49:44;100889.06;;;40.01;22.49
21520;BME280;10921;53.614;9.882;2022-08-04T11:52:23;100895.25;;;39.86;22.27
21520;BME280;10921;53.614;9.882;2022-08-04T11:54:52;100887.84;;;39.73;22.03
21520;BME280;10921;53.614;9.882;2022-08-04T11:57:21;100891.59;;;39.48;22.14
21520;BME280;10921;53.614;9.882;2022-08-04T12:00:04;100885.53;;;39.37;22.52
21520;BME280;10921;53.614;9.882;2022-08-04T12:02:57;100883.06;;;39.44;23.50
21520;BME280;10921;53.614;9.882;2022-08-04T12:05:31;100882.53;;;39.42;23.30
21520;BME280;10921;53.614;9.882;2022-08-04T12:16:56;100881.13;;;40.03;23.30
21520;BME280;10921;53.614;9.882;2022-08-04T12:19:54;100870.88;;;40.16;23.61
21520;BME280;10921;53.614;9.882;2022-08-04T12:22:47;100866.34;;;40.03;23.83
21520;BME280;10921;53.614;9.882;2022-08-04T12:25:20;100876.50;;;40.07;23.47
21520;BME280;10921;53.614;9.882;2022-08-04T12:28:15;100868.13;;;40.07;23.52
21520;BME280;10921;53.614;9.882;2022-08-04T12:30:48;100868.88;;;39.96;22.21
21520;BME280;10921;53.614;9.882;2022-08-04T12:33:46;100875.63;;;39.95;23.30
21520;BME280;10921;53.614;9.882;2022-08-04T12:39:16;100864.34;;;39.74;24.21
21520;BME280;10921;53.614;9.882;2022-08-04T12:44:20;100853.44;;;39.90;23.53
21520;BME280;10921;53.614;9.882;2022-08-04T12:47:07;100835.75;;;40.06;23.24
21520;BME280;10921;53.614;9.882;2022-08-04T12:49:58;100851.88;;;40.30;22.03
21520;BME280;10921;53.614;9.882;2022-08-04T12:52:30;100846.88;;;40.57;23.19
21520;BME280;10921;53.614;9.882;2022-08-04T12:55:20;100846.19;;;40.60;21.26
21520;BME280;10921;53.614;9.882;2022-08-04T12:57:50;100836.38;;;40.74;22.21
21520;BME280;10921;53.614;9.882;2022-08-04T13:00:35;100833.38;;;40.92;22.37
21520;BME280;10921;53.614;9.882;2022-08-04T13:03:13;100818.31;;;40.84;22.03
21520;BME280;10921;53.614;9.882;2022-08-04T13:05:41;100840.66;;;40.72;21.78
21520;BME280;10921;53.614;9.882;2022-08-04T13:08:13;100829.31;;;40.89;21.77
21520;BME280;10921;53.614;9.882;2022-08-04T13:10:45;100827.06;;;40.95;21.89
21520;BME280;10921;53.614;9.882;2022-08-04T13:13:18;100821.97;;;40.97;22.70
21520;BME280;10921;53.614;9.882;2022-08-04T13:16:02;100818.47;;;41.12;21.91
21520;BME280;10921;53.614;9.882;2022-08-04T13:18:38;100826.88;;;41.00;21.50
21520;BME280;10921;53.614;9.882;2022-08-04T13:21:20;100820.91;;;41.01;22.04
21520;BME280;10921;53.614;9.882;2022-08-04T13:24:12;100822.78;;;40.97;22.63
21520;BME280;10921;53.614;9.882;2022-08-04T13:27:00;100817.28;;;40.89;22.03
21520;BME280;10921;53.614;9.882;2022-08-04T13:29:42;100815.88;;;40.83;21.68
21520;BME280;10921;53.614;9.882;2022-08-04T13:32:29;100818.44;;;40.88;23.01
21520;BME280;10921;53.614;9.882;2022-08-04T13:34:57;100793.63;;;40.86;22.07
21520;BME280;10921;53.614;9.882;2022-08-04T13:37:31;100809.38;;;40.91;21.77
21520;BME280;10921;53.614;9.882;2022-08-04T13:39:59;100802.81;;;40.87;21.35
21520;BME280;10921;53.614;9.882;2022-08-04T13:42:27;100800.50;;;40.89;22.14
21520;BME280;10921;53.614;9.882;2022-08-04T13:44:57;100797.00;;;40.92;21.83
21520;BME280;10921;53.614;9.882;2022-08-04T13:47:29;100792.25;;;40.92;22.59
21520;BME280;10921;53.614;9.882;2022-08-04T13:50:18;100794.69;;;40.94;21.63
21520;BME280;10921;53.614;9.882;2022-08-04T13:52:45;100793.53;;;41.07;21.51
21520;BME280;10921;53.614;9.882;2022-08-04T13:55:35;100786.25;;;40.82;22.00
21520;BME280;10921;53.614;9.882;2022-08-04T13:58:18;100779.88;;;40.60;22.14
21520;BME280;10921;53.614;9.882;2022-08-04T14:00:50;100770.31;;;40.28;21.82
21520;BME280;10921;53.614;9.882;2022-08-04T14:03:38;100768.69;;;40.06;22.36
21520;BME280;10921;53.614;9.882;2022-08-04T14:06:23;100770.13;;;39.92;23.17
21520;BME280;10921;53.614;9.882;2022-08-04T14:08:56;100761.16;;;39.78;22.84
21520;BME280;10921;53.614;9.882;2022-08-04T14:11:43;100755.31;;;39.70;23.15
21520;BME280;10921;53.614;9.882;2022-08-04T14:14:32;100761.28;;;39.60;23.81
21520;BME280;10921;53.614;9.882;2022-08-04T14:17:10;100762.06;;;39.90;24.24
21520;BME280;10921;53.614;9.882;2022-08-04T14:19:58;100769.53;;;39.57;26.10
21520;BME280;10921;53.614;9.882;2022-08-04T14:25:12;100773.81;;;39.16;28.47
21520;BME280;10921;53.614;9.882;2022-08-04T14:27:50;100765.38;;;38.87;29.26
21520;BME280;10921;53.614;9.882;2022-08-04T14:30:26;100780.88;;;38.58;30.02
21520;BME280;10921;53.614;9.882;2022-08-04T14:32:58;100784.66;;;38.19;31.81
21520;BME280;10921;53.614;9.882;2022-08-04T14:35:56;100799.66;;;37.92;32.36
21520;BME280;10921;53.614;9.882;2022-08-04T14:38:40;100803.53;;;37.57;34.09
21520;BME280;10921;53.614;9.882;2022-08-04T14:41:07;100804.94;;;37.06;35.25
21520;BME280;10921;53.614;9.882;2022-08-04T14:43:45;100824.78;;;36.69;36.38
21520;BME280;10921;53.614;9.882;2022-08-04T14:46:12;100828.06;;;36.26;37.74
21520;BME280;10921;53.614;9.882;2022-08-04T14:51:44;100832.03;;;35.43;39.82
21520;BME280;10921;53.614;9.882;2022-08-04T14:54:13;100846.34;;;35.04;40.86
21520;BME280;10921;53.614;9.882;2022-08-04T14:56:52;100851.03;;;34.71;41.61
21520;BME280;10921;53.614;9.882;2022-08-04T14:59:20;100866.34;;;34.31;42.46
21520;BME280;10921;53.614;9.882;2022-08-04T15:01:48;100878.25;;;34.07;42.68
21520;BME280;10921;53.614;9.882;2022-08-04T15:04:26;100890.16;;;34.08;40.81
21520;BME280;10921;53.614;9.882;2022-08-04T15:06:53;100891.63;;;33.52;43.84
21520;BME280;10921;53.614;9.882;2022-08-04T15:09:21;100883.34;;;33.24;44.00
21520;BME280;10921;53.614;9.882;2022-08-04T15:11:47;100891.59;;;33.00;44.31
21520;BME280;10921;53.614;9.882;2022-08-04T15:14:14;100898.38;;;32.78;44.42
21520;BME280;10921;53.614;9.882;2022-08-04T15:17:01;100897.66;;;32.58;44.54
21520;BME280;10921;53.614;9.882;2022-08-04T15:19:28;100892.56;;;32.36;44.20
21520;BME280;10921;53.614;9.882;2022-08-04T15:21:59;100880.00;;;32.04;44.83
21520;BME280;10921;53.614;9.882;2022-08-04T15:24:26;100882.56;;;31.80;44.96
21520;BME280;10921;53.614;9.882;2022-08-04T15:26:55;100900.25;;;31.64;45.66
21520;BME280;10921;53.614;9.882;2022-08-04T15:29:30;100903.63;;;31.41;45.99
21520;BME280;10921;53.614;9.882;2022-08-04T15:32:20;100923.78;;;31.16;46.96
21520;BME280;10921;53.614;9.882;2022-08-04T15:34:49;100944.13;;;30.95;47.44
21520;BME280;10921;53.614;9.882;2022-08-04T15:37:39;100961.50;;;30.85;46.32
21520;BME280;10921;53.614;9.882;2022-08-04T15:40:12;100961.44;;;30.60;46.92
21520;BME280;10921;53.614;9.882;2022-08-04T15:45:54;100989.88;;;30.18;46.88
21520;BME280;10921;53.614;9.882;2022-08-04T15:48:43;101014.13;;;29.84;47.87
21520;BME280;10921;53.614;9.882;2022-08-04T15:51:11;101038.44;;;29.60;48.47
21520;BME280;10921;53.614;9.882;2022-08-04T15:58:56;101085.38;;;28.78;51.74
21520;BME280;10921;53.614;9.882;2022-08-04T16:01:23;101115.63;;;28.40;51.17
21520;BME280;10921;53.614;9.882;2022-08-04T16:03:51;101134.66;;;27.96;51.46
21520;BME280;10921;53.614;9.882;2022-08-04T16:09:02;101155.69;;;27.17;55.03
21520;BME280;10921;53.614;9.882;2022-08-04T16:21:56;101131.38;;;25.57;64.60
21520;BME280;10921;53.614;9.882;2022-08-04T16:26:56;101120.31;;;25.22;65.20
21520;BME280;10921;53.614;9.882;2022-08-04T16:29:33;101115.03;;;25.09;66.56
21520;BME280;10921;53.614;9.882;2022-08-04T16:34:34;101083.22;;;24.84;65.94
21520;BME280;10921;53.614;9.882;2022-08-04T16:37:17;101076.84;;;24.72;67.83
21520;BME280;10921;53.614;9.882;2022-08-04T16:39:45;101068.13;;;24.64;69.08
21520;BME280;10921;53.614;9.882;2022-08-04T16:50:15;101027.22;;;24.45;70.82
21520;BME280;10921;53.614;9.882;2022-08-04T16:52:53;101023.31;;;24.41;70.65
21520;BME280;10921;53.614;9.882;2022-08-04T16:55:24;101002.31;;;24.42;72.49
21520;BME280;10921;53.614;9.882;2022-08-04T16:57:54;100977.63;;;24.37;71.99
21520;BME280;10921;53.614;9.882;2022-08-04T17:00:33;100985.47;;;24.45;71.75
21520;BME280;10921;53.614;9.882;2022-08-04T17:03:04;100991.53;;;24.47;71.23
21520;BME280;10921;53.614;9.882;2022-08-04T17:05:31;100975.16;;;24.47;72.33
21520;BME280;10921;53.614;9.882;2022-08-04T17:08:06;100964.06;;;24.60;71.93
21520;BME280;10921;53.614;9.882;2022-08-04T17:10:53;100954.66;;;24.74;72.62
21520;BME280;10921;53.614;9.882;2022-08-04T17:13:25;100948.09;;;24.94;72.14
21520;BME280;10921;53.614;9.882;2022-08-04T17:16:16;100929.50;;;25.14;70.38
21520;BME280;10921;53.614;9.882;2022-08-04T17:18:48;100930.00;;;25.34;70.14
21520;BME280;10921;53.614;9.882;2022-08-04T17:21:18;100927.03;;;25.47;67.69
21520;BME280;10921;53.614;9.882;2022-08-04T17:23:50;100916.69;;;25.61;67.96
21520;BME280;10921;53.614;9.882;2022-08-04T17:26:38;100930.63;;;25.71;67.28
21520;BME280;10921;53.614;9.882;2022-08-04T17:29:07;100911.59;;;25.76;66.34
21520;BME280;10921;53.614;9.882;2022-08-04T17:31:36;100906.25;;;25.81;66.78
21520;BME280;10921;53.614;9.882;2022-08-04T17:34:13;100920.72;;;25.93;67.52
21520;BME280;10921;53.614;9.882;2022-08-04T17:36:44;100926.06;;;26.00;66.25
21520;BME280;10921;53.614;9.882;2022-08-04T17:39:18;100934.56;;;26.15;65.15
21520;BME280;10921;53.614;9.882;2022-08-04T17:41:47;100928.50;;;26.25;64.58
21520;BME280;10921;53.614;9.882;2022-08-04T17:44:15;100932.16;;;26.42;64.59
21520;BME280;10921;53.614;9.882;2022-08-04T17:46:45;100931.34;;;26.58;64.08